Time;durP1;ratioP1;P1;durP2;ratioP2;P2;SDS_P1;SDS_P2;PMS_P1;PMS_P2;Temp;Humidity;BMP_temperature;BMP_pressure;BME280_temperature;BME280_humidity;BME280_pressure;Samples;Min_cycle;Max_cycle;Signal;HPM_P1;HPM_P2
2021/12/26 00:02:02;;;;;;;3.90;2.60;;;;;;;-2.63;80.85;100887.17;105982;1269;72956;-80
2021/12/26 00:04:32;;;;;;;3.80;2.40;;;;;;;-2.69;81.11;100892.02;106126;1268;60353;-81
2021/12/26 00:07:03;;;;;;;3.60;2.40;;;;;;;-2.69;80.96;100888.79;105945;1272;61790;-79
2021/12/26 00:09:32;;;;;;;4.60;2.60;;;;;;;-2.69;80.91;100884.88;105976;1269;73679;-78
2021/12/26 00:12:01;;;;;;;3.70;2.30;;;;;;;-2.72;80.66;100876.05;106123;1271;73584;-78
2021/12/26 00:14:30;;;;;;;3.90;2.20;;;;;;;-2.62;80.91;100873.67;106216;1269;70038;-79
2021/12/26 00:16:59;;;;;;;12.60;7.30;;;;;;;-2.67;80.54;100896.59;106175;1268;72514;-78
2021/12/26 00:19:28;;;;;;;3.40;2.30;;;;;;;-2.65;80.72;100911.41;106083;1270;60923;-78
2021/12/26 00:21:57;;;;;;;5.00;2.50;;;;;;;-2.69;81.02;100903.96;106234;1269;60120;-78
2021/12/26 00:24:26;;;;;;;3.70;2.20;;;;;;;-2.69;81.34;100906.34;106208;1269;73647;-79
2021/12/26 00:26:56;;;;;;;5.20;2.70;;;;;;;-2.77;81.22;100908.52;106310;1269;73560;-78
2021/12/26 00:29:25;;;;;;;4.00;2.30;;;;;;;-2.74;81.63;100913.58;106237;1269;71848;-76
2021/12/26 00:31:53;;;;;;;4.50;2.50;;;;;;;-2.70;81.88;100912.67;106186;1269;74774;-77
2021/12/26 00:34:23;;;;;;;4.60;2.60;;;;;;;-2.74;81.27;100921.77;106122;1269;59696;-74
2021/12/26 00:36:52;;;;;;;5.80;2.20;;;;;;;-2.76;81.33;100920.77;105914;1271;61648;-79
2021/12/26 00:39:21;;;;;;;4.00;2.30;;;;;;;-2.76;81.26;100917.02;106139;1269;73352;-77
2021/12/26 00:41:53;;;;;;;5.10;2.30;;;;;;;-2.75;81.45;100916.50;105942;1268;70606;-76
2021/12/26 00:44:22;;;;;;;4.50;2.50;;;;;;;-2.76;81.42;100916.86;105956;1270;69565;-77
2021/12/26 00:46:53;;;;;;;4.40;2.20;;;;;;;-2.81;81.38;100920.50;105992;1269;74231;-76
2021/12/26 00:49:23;;;;;;;3.80;2.30;;;;;;;-2.85;81.36;100923.46;106087;1269;60766;-72
2021/12/26 00:51:51;;;;;;;4.10;2.40;;;;;;;-2.85;81.68;100927.20;105945;1269;62089;-77
2021/12/26 00:54:20;;;;;;;4.10;2.50;;;;;;;-2.90;81.64;100927.61;106163;1268;74301;-78
2021/12/26 00:56:49;;;;;;;6.30;2.60;;;;;;;-2.87;81.93;100929.95;105929;1269;71439;-78
2021/12/26 00:59:18;;;;;;;4.60;2.60;;;;;;;-2.85;81.77;100938.44;106179;1269;71082;-77
2021/12/26 01:01:47;;;;;;;4.00;2.30;;;;;;;-2.84;81.70;100942.36;106082;1269;74053;-78
2021/12/26 01:04:17;;;;;;;4.50;2.60;;;;;;;-2.89;81.60;100945.50;105890;1271;60545;-78
2021/12/26 01:06:50;;;;;;;;;;;;;;;-2.99;81.93;100949.71;105895;1271;61667;-76
2021/12/26 01:09:24;;;;;;;4.40;2.30;;;;;;;-2.97;81.66;100944.56;106142;1269;72191;-76
2021/12/26 01:12:00;;;;;;;4.10;2.30;;;;;;;-3.02;81.83;100938.52;105913;1269;70495;-77
2021/12/26 01:14:35;;;;;;;5.90;3.10;;;;;;;-3.06;82.03;100931.92;105899;1268;69055;-76
2021/12/26 01:17:15;;;;;;;4.20;2.20;;;;;;;-3.00;81.95;100934.40;106126;1269;74402;-76
2021/12/26 01:19:56;;;;;;;3.10;1.70;;;;;;;-2.97;81.79;100930.60;106087;1269;59665;-78
2021/12/26 01:22:26;;;;;;;3.70;2.10;;;;;;;-3.02;81.81;100932.88;105975;1269;60334;-72
2021/12/26 01:25:04;;;;;;;4.00;2.50;;;;;;;-2.98;81.70;100931.47;105900;1271;74831;-78
2021/12/26 01:27:34;;;;;;;4.50;2.50;;;;;;;-2.93;81.75;100942.83;105957;1271;69496;-78
2021/12/26 01:30:05;;;;;;;3.20;1.90;;;;;;;-2.92;81.88;100942.13;106166;1269;69764;-77
2021/12/26 01:32:35;;;;;;;4.60;2.40;;;;;;;-2.92;81.81;100940.92;105997;1269;74873;-78
2021/12/26 01:35:23;;;;;;;5.00;2.50;;;;;;;-2.93;81.89;100939.24;106153;1267;63037;-79
2021/12/26 01:38:15;;;;;;;7.20;2.40;;;;;;;-2.97;81.81;100934.86;106187;1269;59520;-79
2021/12/26 01:40:50;;;;;;;4.90;2.20;;;;;;;-2.94;82.24;100927.66;106122;1269;72547;-80
2021/12/26 01:43:44;;;;;;;4.30;2.60;;;;;;;-2.94;82.15;100920.50;105987;1268;72576;-78
2021/12/26 01:46:55;;;;;;;5.00;2.60;;;;;;;-2.94;82.19;100917.77;105978;1268;68485;-78
2021/12/26 01:49:32;;;;;;;4.90;2.40;;;;;;;-2.94;82.20;100914.38;105870;1269;73213;-79
2021/12/26 01:52:05;;;;;;;5.10;2.80;;;;;;;-2.94;82.05;100914.20;105913;1269;59705;-80
2021/12/26 01:54:59;;;;;;;3.10;2.10;;;;;;;-2.93;82.32;100920.67;106041;1272;61865;-78
2021/12/26 01:57:29;;;;;;;5.80;2.50;;;;;;;-2.92;81.89;100922.86;107755;1271;75201;-71
2021/12/26 01:59:57;;;;;;;3.90;2.20;;;;;;;-2.95;82.18;100919.67;107082;1269;72281;-80
2021/12/26 02:02:49;;;;;;;5.50;2.50;;;;;;;-2.97;82.43;100922.59;107092;1269;71490;-78
2021/12/26 02:05:20;;;;;;;;;;;;;;;-2.94;82.46;100927.50;106612;1269;71369;-77
2021/12/26 02:07:50;;;;;;;4.20;2.20;;;;;;;-3.12;81.79;100934.20;106688;1270;59751;-79
2021/12/26 02:10:19;;;;;;;4.20;2.30;;;;;;;-3.10;82.18;100937.24;105999;1269;61786;-80
2021/12/26 02:12:48;;;;;;;3.90;2.10;;;;;;;-3.13;82.17;100938.13;105840;1272;72017;-81
2021/12/26 02:15:18;;;;;;;4.00;2.50;;;;;;;-3.22;82.11;100935.00;105961;1268;72061;-80
2021/12/26 02:18:02;;;;;;;3.10;2.10;;;;;;;-3.32;82.00;100934.95;106155;1269;69888;-79
2021/12/26 02:20:50;;;;;;;4.10;1.70;;;;;;;-3.22;82.13;100936.88;106084;1269;74318;-79
2021/12/26 02:28:28;;;;;;;4.40;2.60;;;;;;;-3.20;82.21;100940.61;105825;1269;73650;-79
2021/12/26 02:30:58;;;;;;;5.00;2.40;;;;;;;-3.24;82.15;100941.67;105951;1269;69554;-78
2021/12/26 02:33:27;;;;;;;3.50;1.90;;;;;;;-3.15;82.23;100945.48;105992;1269;69104;-77
2021/12/26 02:35:56;;;;;;;5.70;2.90;;;;;;;-3.14;82.58;100940.70;105850;1269;72345;-78
2021/12/26 02:38:26;;;;;;;3.80;2.50;;;;;;;-3.12;82.90;100944.09;105807;1269;60454;-78
2021/12/26 02:40:57;;;;;;;5.80;2.50;;;;;;;-3.07;82.78;100945.55;105949;1269;61118;-78
2021/12/26 02:43:29;;;;;;;4.70;2.80;;;;;;;-3.04;82.78;100941.94;105989;1268;75696;-78
2021/12/26 02:46:05;;;;;;;4.90;2.60;;;;;;;-3.03;82.31;100946.53;105960;1268;71441;-79
2021/12/26 02:48:36;;;;;;;4.70;2.70;;;;;;;-2.96;83.06;100954.95;105971;1268;71587;-77
2021/12/26 02:51:06;;;;;;;4.50;2.60;;;;;;;-2.96;83.09;100956.83;105847;1271;72479;-81
2021/12/26 02:53:36;;;;;;;6.10;3.10;;;;;;;-2.97;82.75;100955.15;106149;1269;60785;-81
2021/12/26 02:56:06;;;;;;;5.70;2.90;;;;;;;-3.02;82.37;100954.20;106100;1268;59513;-79
2021/12/26 02:58:35;;;;;;;4.30;2.50;;;;;;;-2.99;83.00;100956.88;106113;1269;74466;-82
2021/12/26 03:01:10;;;;;;;4.90;2.60;;;;;;;-2.98;82.74;100949.88;106099;1269;72900;-78
2021/12/26 03:03:40;;;;;;;5.50;3.10;;;;;;;-3.07;82.40;100951.35;106019;1269;69251;-81
2021/12/26 03:06:25;;;;;;;5.60;2.70;;;;;;;-3.03;82.85;100952.48;105973;1268;71768;-83
2021/12/26 03:08:56;;;;;;;5.20;2.70;;;;;;;-2.98;82.92;100957.38;105913;1269;61490;-83
2021/12/26 03:11:24;;;;;;;5.50;2.90;;;;;;;-2.96;83.05;100957.34;106000;1270;63385;-78
2021/12/26 03:13:54;;;;;;;6.90;3.00;;;;;;;-2.97;82.30;100960.94;105707;1269;76169;-80
2021/12/26 03:16:23;;;;;;;5.50;2.90;;;;;;;-2.93;83.15;100961.56;105771;1268;73122;-79
2021/12/26 03:19:00;;;;;;;3.60;2.30;;;;;;;-2.99;82.50;100963.00;105822;1268;70246;-78
2021/12/26 03:21:33;;;;;;;4.70;2.50;;;;;;;-3.01;82.37;100970.35;105758;1269;72380;-80
2021/12/26 03:24:02;;;;;;;4.90;2.60;;;;;;;-2.98;82.75;100969.46;105977;1269;61979;-78
2021/12/26 03:26:32;;;;;;;6.50;2.70;;;;;;;-3.06;81.07;100971.28;105919;1269;60412;-72
2021/12/26 03:29:02;;;;;;;5.00;2.90;;;;;;;-2.99;82.51;100970.16;106207;1268;72869;-80
2021/12/26 03:31:30;;;;;;;3.20;1.90;;;;;;;-2.98;82.30;100978.85;106055;1271;71616;-81
2021/12/26 03:34:03;;;;;;;3.70;2.40;;;;;;;-3.00;82.20;100979.56;106144;1269;69777;-80
2021/12/26 03:36:32;;;;;;;4.20;2.30;;;;;;;-3.05;81.96;100983.54;106120;1269;73610;-71
2021/12/26 03:39:01;;;;;;;5.00;2.50;;;;;;;-3.08;81.63;100983.91;105951;1269;60965;-81
2021/12/26 03:41:33;;;;;;;5.60;2.70;;;;;;;-3.07;81.68;100981.67;106110;1269;59942;-74
2021/12/26 03:44:04;;;;;;;7.00;3.00;;;;;;;-3.09;82.05;100979.14;105937;1269;72230;-76
2021/12/26 03:46:32;;;;;;;5.20;2.80;;;;;;;-3.08;81.98;100985.44;105961;1268;72268;-70
2021/12/26 03:49:04;;;;;;;4.80;2.80;;;;;;;-3.04;82.24;100992.20;106093;1268;70633;-78
2021/12/26 03:51:36;;;;;;;4.20;2.40;;;;;;;-3.07;81.89;101001.80;106029;1269;71580;-79
2021/12/26 03:54:07;;;;;;;3.60;2.20;;;;;;;-3.05;82.38;100998.89;106144;1271;59758;-78
2021/12/26 03:56:37;;;;;;;5.20;2.70;;;;;;;-3.16;82.09;101003.09;106196;1269;61762;-79
2021/12/26 03:59:18;;;;;;;5.00;2.90;;;;;;;-3.17;82.55;101002.08;106112;1269;73552;-80
2021/12/26 04:01:48;;;;;;;3.90;2.40;;;;;;;-3.12;82.79;101003.05;106169;1265;71480;-80
2021/12/26 04:04:17;;;;;;;4.40;2.60;;;;;;;-3.10;82.63;101003.19;106026;1268;70300;-79
2021/12/26 04:06:48;;;;;;;5.60;2.90;;;;;;;-3.09;82.86;101011.02;106157;1268;72355;-78
2021/12/26 04:09:18;;;;;;;6.70;2.40;;;;;;;-3.13;82.67;101011.06;105851;1271;61601;-81
2021/12/26 04:11:53;;;;;;;6.70;3.20;;;;;;;-3.12;82.88;101019.06;106856;1272;60795;-74
2021/12/26 04:14:23;;;;;;;4.90;2.90;;;;;;;-3.11;83.26;101016.66;107219;1269;76001;-78
2021/12/26 04:16:53;;;;;;;4.80;3.00;;;;;;;-3.20;82.39;101012.83;105972;1269;72370;-79
2021/12/26 04:19:22;;;;;;;4.60;2.90;;;;;;;-3.18;83.06;101010.44;105992;1269;70993;-79
2021/12/26 04:21:51;;;;;;;5.10;2.60;;;;;;;-3.27;82.69;101014.11;106012;1268;71835;-78
2021/12/26 04:24:20;;;;;;;4.50;2.80;;;;;;;-3.28;82.63;101023.48;105954;1269;60595;-77
2021/12/26 04:26:50;;;;;;;5.60;2.80;;;;;;;-3.29;82.67;101026.39;105972;1269;61481;-77
2021/12/26 04:29:19;;;;;;;5.30;3.00;;;;;;;-3.31;82.86;101027.77;105980;1268;73658;-75
2021/12/26 04:31:48;;;;;;;4.60;2.90;;;;;;;-3.32;82.70;101028.80;106137;1268;72709;-80
2021/12/26 04:34:17;;;;;;;5.80;2.50;;;;;;;-3.34;82.60;101033.42;106113;1269;70157;-83
2021/12/26 04:36:46;;;;;;;3.70;2.40;;;;;;;-3.45;82.75;101034.55;106057;1269;73413;-78
2021/12/26 04:39:15;;;;;;;5.90;2.90;;;;;;;-3.38;83.02;101038.40;105903;1269;61408;-79
2021/12/26 04:41:46;;;;;;;6.50;3.20;;;;;;;-3.38;83.13;101033.48;105948;1268;60380;-80
2021/12/26 04:44:42;;;;;;;3.90;2.70;;;;;;;-3.31;83.12;101035.95;106082;1269;72552;-78
2021/12/26 04:47:44;;;;;;;8.10;3.20;;;;;;;-3.33;83.10;101040.06;106093;1268;72551;-80
2021/12/26 04:50:17;;;;;;;6.50;3.50;;;;;;;-3.31;83.07;101040.20;105839;1271;70355;-78
2021/12/26 04:52:51;;;;;;;6.40;3.20;;;;;;;-3.43;82.52;101040.33;106082;1269;74182;-84
2021/12/26 04:55:27;;;;;;;5.70;2.90;;;;;;;-3.37;82.91;101047.25;105827;1268;60478;-84
2021/12/26 04:57:57;;;;;;;7.00;3.40;;;;;;;-3.32;83.23;101050.61;106073;1269;60536;-83
2021/12/26 05:00:31;;;;;;;4.20;2.90;;;;;;;-3.27;83.22;101054.99;105894;1268;73531;-82
2021/12/26 05:03:03;;;;;;;6.00;2.70;;;;;;;-3.26;83.12;101054.30;106137;1271;72238;-81
2021/12/26 05:05:35;;;;;;;6.20;2.80;;;;;;;-3.29;82.97;101054.84;105949;1268;69422;-81
2021/12/26 05:08:06;;;;;;;6.10;3.00;;;;;;;-3.36;82.91;101053.21;106139;1269;72792;-82
2021/12/26 05:10:35;;;;;;;5.00;2.90;;;;;;;-3.34;83.34;101056.94;106156;1269;61589;-81
2021/12/26 05:13:04;;;;;;;5.20;2.60;;;;;;;-3.32;83.06;101049.76;106151;1269;62728;-81
2021/12/26 05:15:34;;;;;;;4.20;2.70;;;;;;;-3.32;83.21;101049.92;105896;1271;73114;-81
2021/12/26 05:18:05;;;;;;;4.50;2.80;;;;;;;-3.31;83.34;101052.98;105893;1269;72713;-81
2021/12/26 05:20:36;;;;;;;4.30;3.00;;;;;;;-3.34;83.20;101053.02;105608;1266;394314;-82
2021/12/26 05:23:05;;;;;;;5.80;3.00;;;;;;;-3.38;82.99;101051.85;106124;1269;71973;-83
2021/12/26 05:25:35;;;;;;;5.50;2.80;;;;;;;-3.37;83.21;101055.61;105863;1268;60555;-82
2021/12/26 05:28:05;;;;;;;5.20;2.90;;;;;;;-3.43;82.87;101062.64;106064;1269;59534;-78
2021/12/26 05:30:33;;;;;;;6.50;2.90;;;;;;;-3.41;83.31;101062.79;106057;1269;74367;-78
2021/12/26 05:33:15;;;;;;;5.30;3.10;;;;;;;-3.42;83.37;101057.52;106083;1268;69818;-82
2021/12/26 05:35:45;;;;;;;4.40;3.00;;;;;;;-3.45;83.42;101057.21;106027;1269;67947;-78
2021/12/26 05:38:14;;;;;;;6.40;3.20;;;;;;;-3.40;83.78;101059.39;105995;1269;72381;-78
2021/12/26 05:40:45;;;;;;;5.90;3.50;;;;;;;-3.46;83.28;101066.74;106120;1269;59790;-79
2021/12/26 05:43:14;;;;;;;3.90;2.40;;;;;;;-3.43;83.34;101070.30;105986;1269;62343;-77
2021/12/26 05:45:43;;;;;;;5.50;3.10;;;;;;;-3.37;83.47;101073.48;105915;1268;75325;-77
2021/12/26 05:48:23;;;;;;;6.50;3.20;;;;;;;-3.39;83.32;101069.42;106046;1269;70465;-79
2021/12/26 05:50:53;;;;;;;7.40;3.70;;;;;;;-3.41;82.72;101071.31;105994;1269;68794;-78
2021/12/26 05:53:40;;;;;;;5.00;3.10;;;;;;;-3.35;83.25;101078.05;106130;1269;75285;-72
2021/12/26 05:56:09;;;;;;;7.20;2.80;;;;;;;-3.33;83.48;101082.46;106183;1269;60669;-79
2021/12/26 05:58:39;;;;;;;4.80;2.70;;;;;;;-3.28;83.55;101083.79;106148;1269;61130;-78
2021/12/26 06:01:09;;;;;;;6.70;3.70;;;;;;;-3.30;83.31;101082.61;106926;1269;72705;-80
2021/12/26 06:03:38;;;;;;;6.80;3.10;;;;;;;-3.27;83.37;101083.27;106788;1269;70552;-79
2021/12/26 06:06:07;;;;;;;7.20;3.10;;;;;;;-3.26;83.63;101082.23;106854;1268;67970;-78
2021/12/26 06:08:40;;;;;;;6.10;3.30;;;;;;;-3.22;83.86;101091.73;106818;1269;71958;-70
2021/12/26 06:11:09;;;;;;;6.00;3.60;;;;;;;-3.20;84.15;101095.13;105815;1271;59652;-78
2021/12/26 06:13:39;;;;;;;5.30;2.50;;;;;;;-3.17;84.32;101098.68;105496;1272;60557;-80
2021/12/26 06:16:08;;;;;;;8.80;4.20;;;;;;;-3.23;83.59;101106.40;106069;1269;75329;-78
2021/12/26 06:18:38;;;;;;;8.70;4.50;;;;;;;-3.20;83.86;101107.39;105810;1269;71843;-77
2021/12/26 06:21:25;;;;;;;8.60;4.10;;;;;;;-3.19;83.79;101111.65;105814;1268;71344;-77
2021/12/26 06:24:44;;;;;;;8.40;5.00;;;;;;;-3.21;83.73;101110.48;105773;1268;74210;-79
2021/12/26 06:27:34;;;;;;;7.60;3.80;;;;;;;-3.17;83.70;101117.08;106848;1269;60282;-81
2021/12/26 06:30:23;;;;;;;7.80;4.30;;;;;;;-3.13;84.17;101120.79;107414;1269;59577;-82
2021/12/26 06:33:30;;;;;;;10.00;3.90;;;;;;;-3.08;83.97;101106.77;106300;1269;74871;-88
2021/12/26 06:36:17;;;;;;;6.80;3.60;;;;;;;-3.20;82.60;101111.46;106161;1269;71281;-80
2021/12/26 06:39:05;;;;;;;7.60;4.10;;;;;;;-3.12;82.44;101119.09;105936;1269;70629;-82
2021/12/26 06:41:53;;;;;;;6.60;3.50;;;;;;;-3.13;81.62;101119.59;105980;1268;74728;-79
2021/12/26 06:44:40;;;;;;;8.30;4.20;;;;;;;-3.01;81.87;101117.95;105931;1269;61103;-81
2021/12/26 06:47:22;;;;;;;6.10;3.20;;;;;;;-3.02;80.71;101119.83;105968;1269;61832;-83
2021/12/26 06:49:52;;;;;;;7.20;3.60;;;;;;;-3.03;80.96;101129.71;105817;1268;73252;-77
2021/12/26 06:52:21;;;;;;;5.10;3.30;;;;;;;-2.94;81.19;101129.30;105792;1269;70626;-77
2021/12/26 06:54:50;;;;;;;9.00;4.30;;;;;;;-2.95;79.85;101129.64;105989;1269;68423;-78
2021/12/26 06:57:19;;;;;;;7.00;4.00;;;;;;;-3.08;79.29;101122.43;106009;1269;71202;-79
2021/12/26 06:59:48;;;;;;;8.00;4.00;;;;;;;-3.05;79.41;101127.19;105989;1269;59508;-78
2021/12/26 07:02:18;;;;;;;5.50;3.30;;;;;;;-3.03;79.72;101142.33;105842;1272;60303;-81
2021/12/26 07:04:54;;;;;;;6.30;3.50;;;;;;;-3.01;78.86;101148.95;106092;1268;73254;-82
2021/12/26 07:07:28;;;;;;;9.30;3.90;;;;;;;-2.95;79.47;101149.77;106187;1269;71813;-82
2021/12/26 07:09:57;;;;;;;8.20;4.10;;;;;;;-2.94;79.14;101156.89;105923;1272;71611;-83
2021/12/26 07:12:27;;;;;;;8.10;3.80;;;;;;;-3.04;78.98;101159.04;105947;1269;74946;-84
2021/12/26 07:15:07;;;;;;;7.10;3.80;;;;;;;-3.06;79.98;101163.83;106100;1269;61891;-81
2021/12/26 07:17:41;;;;;;;5.60;3.90;;;;;;;-2.98;79.53;101164.79;105903;1271;60846;-79
2021/12/26 07:20:12;;;;;;;4.70;2.20;;;;;;;-3.19;79.42;101165.13;105981;1268;75173;-81
2021/12/26 07:23:02;;;;;;;8.50;2.90;;;;;;;-3.24;80.20;101164.66;106048;1268;72893;-79
2021/12/26 07:25:32;;;;;;;5.70;3.10;;;;;;;-3.25;79.38;101167.40;105814;1271;68540;-80
2021/12/26 07:28:05;;;;;;;8.00;3.90;;;;;;;-3.30;79.96;101163.52;106021;1268;72341;-82
2021/12/26 07:30:52;;;;;;;7.50;3.90;;;;;;;-3.17;80.10;101167.34;106065;1269;59747;-77
2021/12/26 07:33:21;;;;;;;6.60;3.40;;;;;;;-3.29;79.53;101178.34;105974;1268;62544;-84
2021/12/26 07:35:53;;;;;;;6.10;3.90;;;;;;;-3.12;79.57;101181.42;106034;1269;74371;-84
2021/12/26 07:39:14;;;;;;;8.90;3.90;;;;;;;-3.22;79.45;101180.34;105733;1268;71637;-84
2021/12/26 07:41:43;;;;;;;9.50;4.70;;;;;;;-3.19;79.44;101178.95;105916;1269;68458;-81
2021/12/26 07:44:53;;;;;;;8.30;4.70;;;;;;;-3.07;80.42;101170.81;105732;1271;73585;-80
2021/12/26 07:47:46;;;;;;;9.00;4.90;;;;;;;-2.91;79.17;101182.43;106022;1269;60162;-76
2021/12/26 07:50:16;;;;;;;7.90;4.50;;;;;;;-2.70;79.60;101192.45;106021;1269;60974;-79
2021/12/26 07:53:10;;;;;;;7.70;4.80;;;;;;;-2.71;77.89;101196.38;105997;1269;75232;-80
2021/12/26 07:55:57;;;;;;;11.40;4.80;;;;;;;-2.62;78.11;101183.00;105954;1269;70553;-73
2021/12/26 07:58:45;;;;;;;11.70;5.60;;;;;;;-2.56;78.60;101199.14;105907;1269;71558;-72
2021/12/26 08:01:32;;;;;;;12.60;6.60;;;;;;;-2.47;78.79;101207.91;106079;1268;71990;-74
2021/12/26 08:04:20;;;;;;;8.90;5.40;;;;;;;-2.35;78.62;101210.34;106108;1268;59551;-74
2021/12/26 08:06:53;;;;;;;7.80;4.20;;;;;;;-2.35;78.13;101210.17;106002;1269;60806;-76
2021/12/26 08:09:23;;;;;;;7.60;4.90;;;;;;;-2.30;77.66;101216.94;106095;1269;73411;-72
2021/12/26 08:11:51;;;;;;;9.10;4.90;;;;;;;-2.48;76.72;101201.27;105808;1271;72354;-72
2021/12/26 08:14:21;;;;;;;9.20;4.90;;;;;;;-2.57;76.77;101198.81;105866;1271;69790;-74
2021/12/26 08:16:50;;;;;;;9.30;5.30;;;;;;;-2.86;77.42;101203.53;105946;1271;74380;-71
2021/12/26 08:19:19;;;;;;;9.80;4.60;;;;;;;-2.73;77.69;101206.64;106023;1268;58971;-71
2021/12/26 08:21:52;;;;;;;9.80;4.50;;;;;;;-2.66;78.29;101197.37;105921;1269;61455;-71
2021/12/26 08:24:24;;;;;;;8.60;4.80;;;;;;;-2.58;78.27;101194.21;105930;1269;71908;-72
2021/12/26 08:26:54;;;;;;;11.80;5.60;;;;;;;-2.56;77.59;101194.02;105946;1267;69984;-70
2021/12/26 08:29:23;;;;;;;9.40;5.00;;;;;;;-2.33;77.91;101197.19;105919;1271;70218;-72
2021/12/26 08:31:56;;;;;;;8.30;5.20;;;;;;;-2.52;77.60;101195.19;105987;1270;74308;-76
2021/12/26 08:34:26;;;;;;;9.00;4.90;;;;;;;-2.51;78.21;101195.52;105966;1269;63395;-74
2021/12/26 08:37:01;;;;;;;10.40;5.70;;;;;;;-2.52;78.17;101186.31;105904;1268;61643;-77
2021/12/26 08:39:36;;;;;;;7.40;3.90;;;;;;;-2.45;77.98;101189.82;105762;1269;74189;-76
2021/12/26 08:42:09;;;;;;;6.10;3.80;;;;;;;-2.32;77.38;101185.23;106073;1268;72145;-73
2021/12/26 08:44:39;;;;;;;8.70;3.70;;;;;;;-2.40;76.26;101186.17;106975;1269;70406;-75
2021/12/26 08:47:10;;;;;;;4.90;3.20;;;;;;;-2.36;76.42;101177.93;106112;1270;72176;-75
2021/12/26 08:49:40;;;;;;;8.80;4.60;;;;;;;-2.46;75.79;101176.52;105962;1268;62540;-75
2021/12/26 08:52:09;;;;;;;7.40;4.10;;;;;;;-2.35;76.59;101176.91;106138;1269;61161;-75
2021/12/26 08:54:39;;;;;;;8.70;4.70;;;;;;;-2.39;75.80;101182.07;105979;1269;74927;-76
2021/12/26 08:57:09;;;;;;;11.90;5.90;;;;;;;-2.23;76.33;101177.11;105953;1268;72615;-71
2021/12/26 08:59:40;;;;;;;7.40;4.50;;;;;;;-2.06;76.98;101174.15;105841;1273;68381;-72
2021/12/26 09:02:10;;;;;;;8.70;4.80;;;;;;;-1.91;77.15;101169.17;105837;1269;73965;-74
2021/12/26 09:04:40;;;;;;;9.10;5.60;;;;;;;-1.86;78.15;101171.33;105841;1272;59632;-74
2021/12/26 09:07:10;;;;;;;11.80;4.80;;;;;;;-1.90;77.94;101175.98;105979;1268;61430;-73
2021/12/26 09:09:39;;;;;;;7.50;4.70;;;;;;;-1.97;75.36;101172.15;106023;1269;74316;-75
2021/12/26 09:12:09;;;;;;;10.40;5.30;;;;;;;-1.78;77.53;101169.67;105635;1271;73717;-72
2021/12/26 09:14:39;;;;;;;9.10;4.30;;;;;;;-1.69;77.84;101168.02;105764;1269;69953;-74
2021/12/26 09:17:08;;;;;;;11.70;5.30;;;;;;;-1.90;74.35;101166.94;105923;1269;73867;-73
2021/12/26 09:19:37;;;;;;;9.00;5.10;;;;;;;-2.05;74.61;101168.34;105720;1269;59601;-77
2021/12/26 09:22:09;;;;;;;12.90;6.50;;;;;;;-2.10;74.76;101164.46;105729;1271;62374;-73
2021/12/26 09:24:38;;;;;;;10.00;5.40;;;;;;;-2.16;76.83;101169.00;105749;1269;72418;-72
2021/12/26 09:27:07;;;;;;;12.00;6.30;;;;;;;-2.25;76.19;101171.83;105667;1271;70833;-73
2021/12/26 09:29:36;;;;;;;10.00;5.30;;;;;;;-2.22;76.80;101173.17;105939;1269;68124;-77
2021/12/26 09:32:07;;;;;;;7.70;4.90;;;;;;;-2.05;75.63;101165.10;105707;1271;74107;-74
2021/12/26 09:34:37;;;;;;;13.60;5.80;;;;;;;-2.25;75.77;101167.92;105700;1271;60364;-80
2021/12/26 09:37:10;;;;;;;10.50;5.80;;;;;;;-2.16;77.01;101175.64;105854;1268;60650;-75
2021/12/26 09:39:40;;;;;;;10.30;5.60;;;;;;;-2.18;76.82;101173.10;105867;1269;72673;-72
2021/12/26 09:42:09;;;;;;;12.90;6.50;;;;;;;-2.14;77.73;101169.30;105703;1268;72618;-73
2021/12/26 09:44:38;;;;;;;10.00;5.60;;;;;;;-1.98;78.72;101165.52;105896;1269;69274;-72
2021/12/26 09:47:09;;;;;;;10.90;5.80;;;;;;;-2.27;75.52;101168.80;105763;1271;72997;-73
2021/12/26 09:49:38;;;;;;;10.10;5.50;;;;;;;-2.19;76.49;101171.59;105699;1269;60444;-72
2021/12/26 09:52:08;;;;;;;11.50;6.10;;;;;;;-2.11;77.23;101169.79;105777;1269;62322;-72
2021/12/26 09:54:37;;;;;;;12.80;6.10;;;;;;;-2.03;77.79;101174.63;105939;1268;73100;-73
2021/12/26 09:57:06;;;;;;;10.50;5.40;;;;;;;-1.99;77.13;101175.08;105755;1268;70795;-72
2021/12/26 09:59:37;;;;;;;15.00;8.00;;;;;;;-1.98;76.41;101172.17;105942;1269;67945;-72
2021/12/26 10:02:12;;;;;;;13.00;6.90;;;;;;;-1.96;76.76;101166.17;105816;1268;73976;-72
2021/12/26 10:04:51;;;;;;;10.60;6.90;;;;;;;-1.83;77.22;101164.45;105769;1268;59696;-80
2021/12/26 10:07:25;;;;;;;10.90;6.00;;;;;;;-1.88;76.97;101160.77;105734;1271;60610;-76
2021/12/26 10:09:54;;;;;;;13.50;6.20;;;;;;;-1.99;76.38;101159.89;105889;1269;75154;-72
2021/12/26 10:12:23;;;;;;;11.80;5.80;;;;;;;-1.93;76.39;101155.20;105659;1271;70816;-76
2021/12/26 10:14:54;;;;;;;12.60;6.90;;;;;;;-1.99;75.95;101157.34;106083;1268;69985;-72
2021/12/26 10:17:31;;;;;;;11.40;6.60;;;;;;;-2.09;76.47;101154.92;106958;1269;72955;-74
2021/12/26 10:20:08;;;;;;;13.90;6.90;;;;;;;-1.93;76.51;101151.95;106145;1269;61434;-76
2021/12/26 10:22:37;;;;;;;12.70;6.00;;;;;;;-1.81;76.55;101152.83;106062;1268;61918;-79
2021/12/26 10:25:14;;;;;;;12.70;7.00;;;;;;;-1.84;75.36;101151.84;106026;1268;72489;-75
2021/12/26 10:27:45;;;;;;;11.70;7.20;;;;;;;-2.00;75.75;101156.31;105825;1268;70943;-73
2021/12/26 10:30:17;;;;;;;12.40;7.30;;;;;;;-2.08;76.22;101159.86;105955;1268;68325;-73
2021/12/26 10:32:47;;;;;;;14.00;7.90;;;;;;;-2.07;77.56;101156.08;105959;1269;74307;-73
2021/12/26 10:35:18;;;;;;;17.50;9.30;;;;;;;-2.04;77.17;101152.80;105872;1271;60930;-77
2021/12/26 10:37:51;;;;;;;22.70;9.30;;;;;;;-1.95;77.68;101149.77;105938;1268;61722;-76
2021/12/26 10:40:31;;;;;;;16.00;7.70;;;;;;;-1.69;77.28;101149.23;106051;1268;75747;-77
2021/12/26 10:43:05;;;;;;;15.30;7.90;;;;;;;-1.73;76.34;101148.60;105634;1271;73745;-76
2021/12/26 10:45:35;;;;;;;12.60;7.40;;;;;;;-1.77;76.36;101145.77;106086;1269;70636;-76
2021/12/26 10:48:07;;;;;;;12.30;7.10;;;;;;;-1.61;75.37;101155.27;106052;1269;73350;-76
2021/12/26 10:50:41;;;;;;;13.80;7.80;;;;;;;-1.79;74.83;101154.67;105874;1269;59535;-75
2021/12/26 10:53:14;;;;;;;12.60;7.10;;;;;;;-1.74;74.73;101147.27;106058;1269;62213;-79
2021/12/26 10:55:51;;;;;;;14.10;7.60;;;;;;;-1.76;75.24;101140.46;106281;1268;75061;-74
2021/12/26 10:58:23;;;;;;;17.60;10.70;;;;;;;-1.58;76.00;101135.21;107073;1268;69782;-75
2021/12/26 11:00:58;;;;;;;15.60;9.30;;;;;;;-1.53;75.79;101132.06;105878;1271;69016;-77
2021/12/26 11:03:30;;;;;;;16.60;9.10;;;;;;;-1.72;76.20;101133.23;105907;1268;74700;-77
2021/12/26 11:06:10;;;;;;;15.00;8.30;;;;;;;-1.58;75.63;101135.23;105836;1268;60377;-78
2021/12/26 11:08:44;;;;;;;14.70;9.10;;;;;;;-1.49;75.60;101140.05;106046;1269;59806;-78
2021/12/26 11:11:20;;;;;;;14.60;8.50;;;;;;;-1.40;74.74;101142.28;105905;1268;74490;-76
2021/12/26 11:13:51;;;;;;;13.50;7.50;;;;;;;-1.63;75.80;101141.11;105952;1268;72057;-78
2021/12/26 11:16:20;;;;;;;15.10;8.30;;;;;;;-1.63;74.99;101143.84;105953;1268;71501;-77
2021/12/26 11:18:55;;;;;;;15.00;8.40;;;;;;;-1.69;75.94;101146.48;105897;1267;75303;-77
2021/12/26 11:21:25;;;;;;;16.10;8.90;;;;;;;-1.62;76.36;101147.41;105848;1269;60214;-75
2021/12/26 11:23:53;;;;;;;16.30;9.50;;;;;;;-1.53;76.32;101148.11;106011;1268;61366;-79
2021/12/26 11:26:22;;;;;;;17.00;9.80;;;;;;;-1.32;77.02;101142.15;105915;1269;73688;-76
2021/12/26 11:28:53;;;;;;;18.30;11.30;;;;;;;-1.43;76.13;101137.89;105913;1269;70433;-75
2021/12/26 11:31:28;;;;;;;19.00;10.50;;;;;;;-1.60;76.41;101136.61;105913;1268;71295;-75
2021/12/26 11:34:04;;;;;;;16.50;9.20;;;;;;;-1.51;76.82;101131.70;105991;1268;71965;-73
2021/12/26 11:36:33;;;;;;;18.70;9.50;;;;;;;-1.42;76.86;101129.16;106021;1267;60146;-72
2021/12/26 11:39:52;;;;;;;14.30;8.50;;;;;;;-1.65;76.00;101125.77;105786;1271;60937;-73
2021/12/26 11:43:37;;;;;;;14.70;8.40;;;;;;;-1.67;75.34;101126.30;105690;1268;74513;-74
2021/12/26 11:47:18;;;;;;;18.20;9.10;;;;;;;-1.85;75.63;101125.56;106052;1269;71209;-71
2021/12/26 11:50:52;;;;;;;15.50;8.80;;;;;;;-1.85;76.56;101119.93;105511;1271;71259;-75
2021/12/26 11:54:31;;;;;;;15.30;9.20;;;;;;;-1.68;75.90;101120.34;106002;1267;72908;-73